createdAt,value
2018-07-31T00:00:13.952Z,1005.13
2018-07-31T00:02:27.286Z,1005.09
2018-07-31T00:03:39.377Z,1005.10
2018-07-31T00:04:51.367Z,1005.11
2018-07-31T00:06:20.457Z,1005.13
2018-07-31T00:07:30.614Z,1005.10
2018-07-31T00:07:59.482Z,1005.09
2018-07-31T00:09:06.350Z,1005.10
2018-07-31T00:10:11.387Z,1005.13
2018-07-31T00:11:24.800Z,1005.10
2018-07-31T00:14:57.700Z,1005.13
2018-07-31T00:15:27.088Z,1005.14
2018-07-31T00:16:54.952Z,1005.16
2018-07-31T00:17:55.985Z,1005.13
2018-07-31T00:19:17.298Z,1005.11
2018-07-31T00:20:08.905Z,1005.13
2018-07-31T00:21:14.547Z,1005.15
2018-07-31T00:22:04.726Z,1005.14
2018-07-31T00:23:19.839Z,1005.15
2018-07-31T00:24:14.880Z,1005.13
2018-07-31T00:25:33.636Z,1005.17
2018-07-31T00:26:41.932Z,1005.13
2018-07-31T00:28:00.886Z,1005.15
2018-07-31T00:28:45.022Z,1005.15
2018-07-31T00:31:55.300Z,1005.13
2018-07-31T00:33:05.434Z,1005.15
2018-07-31T00:34:00.836Z,1005.14
2018-07-31T00:35:16.613Z,1005.11
2018-07-31T00:36:36.798Z,1005.12
2018-07-31T00:37:30.661Z,1005.10
2018-07-31T00:38:38.555Z,1005.10
2018-07-31T00:39:37.848Z,1005.13
2018-07-31T00:41:59.783Z,1005.08
2018-07-31T00:43:01.680Z,1005.07
2018-07-31T00:44:09.733Z,1005.04
2018-07-31T00:46:13.338Z,1005.04
2018-07-31T00:47:31.268Z,1005.01
2018-07-31T00:48:15.507Z,1005.03
2018-07-31T00:49:30.226Z,1005.02
2018-07-31T00:50:34.571Z,1005.00
2018-07-31T00:51:44.305Z,1004.99
2018-07-31T00:52:41.758Z,1004.96
2018-07-31T00:53:54.569Z,1004.96
2018-07-31T00:55:04.502Z,1004.94
2018-07-31T00:56:08.695Z,1004.93
2018-07-31T00:57:03.088Z,1004.91
2018-07-31T00:58:22.141Z,1004.91
2018-07-31T00:59:15.185Z,1004.89
2018-07-31T01:00:30.861Z,1004.91
2018-07-31T01:02:35.585Z,1004.89
2018-07-31T01:03:43.175Z,1004.91
2018-07-31T01:04:48.613Z,1004.93
2018-07-31T01:06:52.727Z,1004.94
2018-07-31T01:08:05.022Z,1004.87
2018-07-31T01:09:15.988Z,1004.87
2018-07-31T01:10:06.066Z,1004.88
2018-07-31T01:11:14.736Z,1004.84
2018-07-31T01:12:36.802Z,1004.89
2018-07-31T01:13:37.220Z,1004.84
2018-07-31T01:15:39.386Z,1004.93
2018-07-31T01:16:45.333Z,1004.96
2018-07-31T01:21:09.945Z,1004.96
2018-07-31T01:22:08.009Z,1004.96
2018-07-31T01:23:28.705Z,1004.90
2018-07-31T01:24:24.207Z,1004.92
2018-07-31T01:25:33.233Z,1004.95
2018-07-31T01:26:32.317Z,1004.93
2018-07-31T01:27:38.372Z,1004.96
2018-07-31T01:28:37.246Z,1004.97
2018-07-31T01:29:59.477Z,1004.95
2018-07-31T01:31:08.395Z,1004.96
2018-07-31T01:32:01.751Z,1004.92
2018-07-31T01:33:08.717Z,1004.96
2018-07-31T01:34:18.864Z,1004.93
2018-07-31T01:35:14.779Z,1004.93
2018-07-31T01:36:25.642Z,1004.93
2018-07-31T01:37:31.079Z,1004.95
2018-07-31T01:38:25.969Z,1004.92
2018-07-31T01:39:34.273Z,1004.87
2018-07-31T01:40:37.046Z,1004.89
2018-07-31T01:41:52.931Z,1004.88
2018-07-31T01:43:15.261Z,1004.89
2018-07-31T01:44:10.451Z,1004.91
2018-07-31T01:45:09.434Z,1004.90
2018-07-31T01:46:13.640Z,1004.92
2018-07-31T01:47:15.595Z,1004.93
2018-07-31T01:48:16.837Z,1004.89
2018-07-31T01:49:31.895Z,1004.86
2018-07-31T01:50:31.808Z,1004.81
2018-07-31T01:51:44.920Z,1004.77
2018-07-31T01:53:05.104Z,1004.79
2018-07-31T01:55:00.205Z,1004.83
2018-07-31T01:56:16.289Z,1004.84
2018-07-31T01:57:11.280Z,1004.83
2018-07-31T01:58:19.686Z,1004.84
2018-07-31T01:59:31.211Z,1004.82
2018-07-31T02:01:39.582Z,1004.86
2018-07-31T02:02:57.715Z,1004.85
2018-07-31T02:03:38.676Z,1004.86
2018-07-31T02:04:56.707Z,1004.90
2018-07-31T02:05:56.820Z,1004.89
2018-07-31T02:07:09.937Z,1004.90
2018-07-31T02:08:08.820Z,1004.87
2018-07-31T02:10:14.059Z,1004.91
2018-07-31T02:11:29.024Z,1004.91
2018-07-31T02:12:26.160Z,1004.96
2018-07-31T02:13:37.233Z,1004.96
2018-07-31T02:14:48.401Z,1004.93
2018-07-31T02:15:37.461Z,1004.95
2018-07-31T02:17:42.495Z,1004.89
2018-07-31T02:19:22.371Z,1004.88
2018-07-31T02:21:26.852Z,1004.92
2018-07-31T02:22:24.138Z,1004.90
2018-07-31T02:23:13.968Z,1004.93
2018-07-31T02:24:47.974Z,1004.93
2018-07-31T02:25:26.197Z,1005.00
2018-07-31T02:26:46.147Z,1004.98
2018-07-31T02:27:34.176Z,1004.99
2018-07-31T02:29:16.273Z,1005.00
2018-07-31T02:29:52.422Z,1004.99
2018-07-31T02:30:52.434Z,1004.99
2018-07-31T02:32:15.483Z,1004.95
2018-07-31T02:33:12.521Z,1004.95
2018-07-31T02:34:26.765Z,1004.95
2018-07-31T02:37:14.805Z,1004.95
2018-07-31T02:38:03.141Z,1004.94
2018-07-31T02:41:25.080Z,1004.89
2018-07-31T02:42:11.572Z,1004.88
2018-07-31T02:43:03.729Z,1004.88
2018-07-31T02:45:03.515Z,1004.91
2018-07-31T02:46:37.819Z,1004.95
2018-07-31T02:47:50.013Z,1004.93
2018-07-31T02:48:30.768Z,1004.94
2018-07-31T02:49:23.302Z,1004.96
2018-07-31T02:50:41.024Z,1004.96
2018-07-31T02:53:27.943Z,1005.00
2018-07-31T02:53:45.146Z,1004.99
2018-07-31T02:55:19.051Z,1004.99
2018-07-31T02:57:03.911Z,1004.99
2018-07-31T02:58:12.429Z,1004.97
2018-07-31T02:59:12.119Z,1004.96
2018-07-31T03:00:03.014Z,1004.94
2018-07-31T03:00:48.276Z,1004.95
2018-07-31T03:01:46.443Z,1004.93
2018-07-31T03:03:23.009Z,1004.96
2018-07-31T03:04:43.704Z,1004.93
2018-07-31T03:05:03.683Z,1004.92
2018-07-31T03:06:43.416Z,1004.91
2018-07-31T03:07:35.690Z,1004.94
2018-07-31T03:08:56.289Z,1004.95
2018-07-31T03:12:07.310Z,1004.95
2018-07-31T03:13:10.306Z,1004.96
2018-07-31T03:14:03.235Z,1004.96
2018-07-31T03:15:51.177Z,1004.93
2018-07-31T03:17:05.140Z,1004.96
2018-07-31T03:18:44.230Z,1004.94
2018-07-31T03:20:29.399Z,1005.01
2018-07-31T03:21:22.963Z,1005.02
2018-07-31T03:22:12.456Z,1005.04
2018-07-31T03:24:21.142Z,1005.06
2018-07-31T03:25:53.607Z,1005.04
2018-07-31T03:30:05.329Z,1005.02
2018-07-31T03:31:55.294Z,1005.05
2018-07-31T03:33:04.013Z,1005.06
2018-07-31T03:35:22.868Z,1005.05
2018-07-31T03:36:22.877Z,1005.08
2018-07-31T03:37:22.169Z,1005.09
2018-07-31T03:38:46.547Z,1005.07
2018-07-31T03:39:31.297Z,1005.09
2018-07-31T03:42:06.335Z,1005.05
2018-07-31T03:43:12.488Z,1005.08
2018-07-31T03:43:59.184Z,1005.06
2018-07-31T03:44:59.089Z,1005.06
2018-07-31T03:46:00.020Z,1005.08
2018-07-31T03:47:05.965Z,1005.12
2018-07-31T03:48:29.322Z,1005.11
2018-07-31T03:51:32.833Z,1005.15
2018-07-31T03:52:59.981Z,1005.15
2018-07-31T03:53:57.840Z,1005.15
2018-07-31T03:55:16.587Z,1005.18
2018-07-31T03:57:04.421Z,1005.14
2018-07-31T03:58:06.783Z,1005.19
2018-07-31T03:59:18.057Z,1005.19
2018-07-31T04:00:32.303Z,1005.19
2018-07-31T04:02:32.935Z,1005.21
2018-07-31T04:04:45.392Z,1005.21
2018-07-31T04:05:56.108Z,1005.23
2018-07-31T04:07:08.196Z,1005.25
2018-07-31T04:07:58.681Z,1005.23
2018-07-31T04:09:24.497Z,1005.19
2018-07-31T04:10:30.340Z,1005.19
2018-07-31T04:11:17.857Z,1005.19
2018-07-31T04:12:20.230Z,1005.18
2018-07-31T04:13:34.772Z,1005.19
2018-07-31T04:15:42.572Z,1005.22
2018-07-31T04:16:57.846Z,1005.22
2018-07-31T04:17:38.392Z,1005.20
2018-07-31T04:19:09.254Z,1005.24
2018-07-31T04:19:54.591Z,1005.25
2018-07-31T04:21:26.549Z,1005.24
2018-07-31T04:22:14.984Z,1005.22
2018-07-31T04:23:15.094Z,1005.20
2018-07-31T04:24:20.430Z,1005.20
2018-07-31T04:26:47.684Z,1005.29
2018-07-31T04:27:44.622Z,1005.24
2018-07-31T04:29:44.951Z,1005.27
2018-07-31T04:32:09.438Z,1005.26
2018-07-31T04:32:57.470Z,1005.26
2018-07-31T04:36:33.745Z,1005.25
2018-07-31T04:39:38.377Z,1005.23
2018-07-31T04:41:01.020Z,1005.25
2018-07-31T04:41:56.727Z,1005.23
2018-07-31T04:42:59.356Z,1005.26
2018-07-31T04:44:08.520Z,1005.27
2018-07-31T04:45:15.189Z,1005.27
2018-07-31T04:47:12.638Z,1005.29
2018-07-31T04:48:41.320Z,1005.27
2018-07-31T04:49:31.294Z,1005.31
2018-07-31T04:50:33.248Z,1005.28
2018-07-31T04:51:30.799Z,1005.31
2018-07-31T04:53:53.146Z,1005.32
2018-07-31T04:57:08.433Z,1005.28
2018-07-31T04:58:27.384Z,1005.30
2018-07-31T04:59:20.013Z,1005.32
2018-07-31T05:00:47.568Z,1005.32
2018-07-31T05:01:20.133Z,1005.32
2018-07-31T05:03:03.154Z,1005.32
2018-07-31T05:03:46.161Z,1005.35
2018-07-31T05:06:00.007Z,1005.33
2018-07-31T05:07:13.019Z,1005.32
2018-07-31T05:08:06.882Z,1005.35
2018-07-31T05:09:06.380Z,1005.32
2018-07-31T05:12:50.871Z,1005.32
2018-07-31T05:13:24.240Z,1005.30
2018-07-31T05:17:14.033Z,1005.37
2018-07-31T05:17:56.322Z,1005.33
2018-07-31T05:19:00.428Z,1005.34
2018-07-31T05:20:26.041Z,1005.35
2018-07-31T05:21:33.010Z,1005.34
2018-07-31T05:22:14.692Z,1005.35
2018-07-31T05:23:42.858Z,1005.33
2018-07-31T05:24:45.122Z,1005.36
2018-07-31T05:26:04.385Z,1005.37
2018-07-31T05:26:37.667Z,1005.39
2018-07-31T05:27:59.383Z,1005.38
2018-07-31T05:29:21.714Z,1005.38
2018-07-31T05:31:51.021Z,1005.36
2018-07-31T05:34:04.657Z,1005.35
2018-07-31T05:36:39.487Z,1005.41
2018-07-31T05:38:17.488Z,1005.45
2018-07-31T05:40:11.978Z,1005.42
2018-07-31T05:40:56.829Z,1005.47
2018-07-31T05:42:20.902Z,1005.43
2018-07-31T05:42:58.901Z,1005.44
2018-07-31T05:44:08.834Z,1005.47
2018-07-31T05:45:49.706Z,1005.45
2018-07-31T05:47:05.383Z,1005.44
2018-07-31T05:48:51.984Z,1005.49
2018-07-31T05:50:12.373Z,1005.53
2018-07-31T05:50:58.148Z,1005.49
2018-07-31T05:52:33.384Z,1005.53
2018-07-31T05:53:41.377Z,1005.53
2018-07-31T05:54:12.510Z,1005.56
2018-07-31T05:55:22.554Z,1005.58
2018-07-31T05:57:38.850Z,1005.59
2018-07-31T05:58:44.697Z,1005.55
2018-07-31T05:59:44.913Z,1005.59
2018-07-31T06:01:04.895Z,1005.55
2018-07-31T06:01:53.123Z,1005.55
2018-07-31T06:05:19.674Z,1005.60
2018-07-31T06:06:00.328Z,1005.62
2018-07-31T06:07:28.398Z,1005.60
2018-07-31T06:08:10.484Z,1005.61
2018-07-31T06:09:23.293Z,1005.61
2018-07-31T06:10:33.745Z,1005.61
2018-07-31T06:11:35.804Z,1005.58
2018-07-31T06:12:49.413Z,1005.55
2018-07-31T06:14:04.801Z,1005.56
2018-07-31T06:15:54.888Z,1005.59
2018-07-31T06:17:02.988Z,1005.58
2018-07-31T06:19:17.577Z,1005.61
2018-07-31T06:20:16.325Z,1005.59
2018-07-31T06:21:34.459Z,1005.59
2018-07-31T06:22:24.433Z,1005.63
2018-07-31T06:23:46.560Z,1005.62
2018-07-31T06:24:38.683Z,1005.64
2018-07-31T06:25:48.835Z,1005.65
2018-07-31T06:26:43.924Z,1005.67
2018-07-31T06:27:56.755Z,1005.72
2018-07-31T06:28:58.890Z,1005.71
2018-07-31T06:30:11.904Z,1005.77
2018-07-31T06:31:12.219Z,1005.76
2018-07-31T06:32:19.189Z,1005.78
2018-07-31T06:34:25.361Z,1005.73
2018-07-31T06:35:38.161Z,1005.73
2018-07-31T06:36:39.604Z,1005.79
2018-07-31T06:37:46.574Z,1005.84
2018-07-31T06:38:57.642Z,1005.84
2018-07-31T06:40:57.248Z,1005.87
2018-07-31T06:42:08.213Z,1005.89
2018-07-31T06:43:09.759Z,1005.87
2018-07-31T06:44:11.105Z,1005.90
2018-07-31T06:45:28.927Z,1005.86
2018-07-31T06:46:34.978Z,1005.88
2018-07-31T06:47:32.938Z,1005.88
2018-07-31T06:48:37.927Z,1005.86
2018-07-31T06:49:54.157Z,1005.86
2018-07-31T06:51:08.297Z,1005.85
2018-07-31T06:52:02.569Z,1005.82
2018-07-31T06:53:33.708Z,1005.81
2018-07-31T06:54:20.098Z,1005.85
2018-07-31T06:55:13.041Z,1005.83
2018-07-31T06:56:35.299Z,1005.85
2018-07-31T06:57:41.830Z,1005.86
2018-07-31T06:58:25.762Z,1005.85
2018-07-31T06:59:55.878Z,1005.90
2018-07-31T07:01:05.305Z,1005.91
2018-07-31T07:01:40.533Z,1005.86
2018-07-31T07:03:07.679Z,1005.87
2018-07-31T07:03:56.320Z,1005.89
2018-07-31T07:06:18.937Z,1005.95
2018-07-31T07:07:15.089Z,1005.95
2018-07-31T07:09:30.874Z,1005.95
2018-07-31T07:10:27.707Z,1005.95
2018-07-31T07:11:34.164Z,1005.92
2018-07-31T07:12:39.193Z,1005.91
2018-07-31T07:14:45.561Z,1005.89
2018-07-31T07:16:04.824Z,1005.93
2018-07-31T07:16:53.564Z,1005.94
2018-07-31T07:18:08.945Z,1005.96
2018-07-31T07:19:08.330Z,1005.94
2018-07-31T07:20:20.730Z,1005.92
2018-07-31T07:21:25.145Z,1005.93
2018-07-31T07:22:36.043Z,1005.95
2018-07-31T07:23:32.225Z,1005.96
2018-07-31T07:24:35.306Z,1005.95
2018-07-31T07:25:37.875Z,1006.00
2018-07-31T07:26:52.840Z,1006.01
2018-07-31T07:28:00.387Z,1005.99
2018-07-31T07:29:01.046Z,1005.97
2018-07-31T07:30:14.163Z,1006.01
2018-07-31T07:31:14.180Z,1006.04
2018-07-31T07:32:22.375Z,1006.01
2018-07-31T07:33:15.930Z,1006.01
2018-07-31T07:34:31.198Z,1006.00
2018-07-31T07:35:32.436Z,1006.01
2018-07-31T07:36:41.979Z,1005.95
2018-07-31T07:39:01.447Z,1005.93
2018-07-31T07:40:11.930Z,1005.94
2018-07-31T07:40:56.954Z,1005.94
2018-07-31T07:42:15.497Z,1005.92
2018-07-31T07:43:40.080Z,1005.97
2018-07-31T07:45:44.089Z,1005.95
2018-07-31T07:46:28.020Z,1005.94
2018-07-31T07:50:09.832Z,1005.94
2018-07-31T07:50:54.480Z,1005.98
2018-07-31T07:52:14.966Z,1006.05
2018-07-31T07:53:09.240Z,1006.08
2018-07-31T07:54:05.178Z,1006.05
2018-07-31T07:55:07.315Z,1006.04
2018-07-31T07:57:34.773Z,1006.04
2018-07-31T07:58:25.261Z,1006.11
2018-07-31T08:00:57.842Z,1006.10
2018-07-31T08:02:04.507Z,1006.06
2018-07-31T08:02:46.697Z,1006.07
2018-07-31T08:03:55.660Z,1006.03
2018-07-31T08:05:17.740Z,1006.02
2018-07-31T08:06:23.487Z,1005.98
2018-07-31T08:07:23.087Z,1005.95
2018-07-31T08:08:33.132Z,1005.90
2018-07-31T08:10:38.371Z,1005.93
2018-07-31T08:11:54.255Z,1005.93
2018-07-31T08:12:46.068Z,1005.93
2018-07-31T08:13:44.950Z,1005.98
2018-07-31T08:14:57.473Z,1005.97
2018-07-31T08:16:02.371Z,1006.00
2018-07-31T08:17:12.518Z,1005.94
2018-07-31T08:18:11.297Z,1005.93
2018-07-31T08:19:18.276Z,1005.92
2018-07-31T08:20:24.549Z,1005.87
2018-07-31T08:22:36.491Z,1005.86
2018-07-31T08:24:51.798Z,1005.76
2018-07-31T08:26:03.276Z,1005.76
2018-07-31T08:26:57.650Z,1005.75
2018-07-31T08:28:00.527Z,1005.77
2018-07-31T08:29:06.474Z,1005.75
2018-07-31T08:30:16.636Z,1005.79
2018-07-31T08:31:15.603Z,1005.78
2018-07-31T08:32:26.574Z,1005.83
2018-07-31T08:33:31.443Z,1005.81
2018-07-31T08:34:32.893Z,1005.78
2018-07-31T08:35:42.979Z,1005.79
2018-07-31T08:36:52.412Z,1005.82
2018-07-31T08:37:55.389Z,1005.84
2018-07-31T08:40:06.365Z,1005.85
2018-07-31T08:42:16.626Z,1005.84
2018-07-31T08:43:26.567Z,1005.85
2018-07-31T08:44:19.815Z,1005.89
2018-07-31T08:45:30.886Z,1005.91
2018-07-31T08:46:33.144Z,1005.93
2018-07-31T08:48:42.995Z,1005.96
2018-07-31T08:51:00.118Z,1005.95
2018-07-31T08:52:00.226Z,1005.97
2018-07-31T08:53:08.221Z,1005.96
2018-07-31T08:54:17.449Z,1005.94
2018-07-31T08:56:34.259Z,1005.94
2018-07-31T08:57:39.285Z,1005.95
2018-07-31T08:58:49.843Z,1005.97
2018-07-31T08:59:47.605Z,1005.97
2018-07-31T09:00:50.577Z,1005.95
2018-07-31T09:03:04.831Z,1005.94
2018-07-31T09:05:08.433Z,1005.96
2018-07-31T09:07:21.045Z,1005.97
2018-07-31T09:08:27.280Z,1005.97
2018-07-31T09:11:54.873Z,1005.95
2018-07-31T09:12:54.065Z,1005.96
2018-07-31T09:14:02.470Z,1005.93
2018-07-31T09:15:04.321Z,1005.93
2018-07-31T09:17:18.680Z,1005.96
2018-07-31T09:19:26.273Z,1005.97
2018-07-31T09:20:30.479Z,1005.94
2018-07-31T09:22:38.997Z,1005.96
2018-07-31T09:23:46.177Z,1006.00
2018-07-31T09:24:52.655Z,1005.98
2018-07-31T09:25:56.230Z,1006.01
2018-07-31T09:27:05.765Z,1006.01
2018-07-31T09:28:14.986Z,1006.01
2018-07-31T09:29:08.562Z,1006.04
2018-07-31T09:30:13.465Z,1006.05
2018-07-31T09:31:20.748Z,1006.04
2018-07-31T09:33:37.764Z,1005.98
2018-07-31T09:34:42.483Z,1006.03
2018-07-31T09:35:48.943Z,1006.10
2018-07-31T09:37:01.035Z,1006.09
2018-07-31T09:37:59.819Z,1006.06
2018-07-31T09:38:57.980Z,1006.09
2018-07-31T09:40:22.460Z,1006.18
2018-07-31T09:41:14.685Z,1006.14
2018-07-31T09:42:11.725Z,1006.12
2018-07-31T09:43:24.122Z,1006.06
2018-07-31T09:44:40.413Z,1006.06
2018-07-31T09:46:38.086Z,1006.16
2018-07-31T09:47:50.991Z,1006.14
2018-07-31T09:48:53.247Z,1006.20
2018-07-31T09:49:55.304Z,1006.08
2018-07-31T09:51:18.662Z,1006.15
2018-07-31T09:52:11.296Z,1006.13
2018-07-31T09:53:16.322Z,1006.17
2018-07-31T09:54:26.173Z,1006.20
2018-07-31T09:55:23.922Z,1006.17
2018-07-31T09:56:31.915Z,1006.18
2018-07-31T09:57:36.942Z,1006.15
2018-07-31T09:58:47.191Z,1006.12
2018-07-31T09:59:56.932Z,1006.12
2018-07-31T10:00:58.476Z,1006.05
2018-07-31T10:03:03.104Z,1006.09
2018-07-31T10:04:04.133Z,1006.15
2018-07-31T10:05:11.375Z,1006.10
2018-07-31T10:06:32.208Z,1006.06
2018-07-31T10:07:31.499Z,1006.10
2018-07-31T10:09:40.940Z,1006.07
2018-07-31T10:10:43.407Z,1006.05
2018-07-31T10:13:53.069Z,1006.04
2018-07-31T10:15:03.412Z,1006.10
2018-07-31T10:16:15.406Z,1006.16
2018-07-31T10:17:21.967Z,1006.14
2018-07-31T10:18:34.263Z,1006.19
2018-07-31T10:19:24.852Z,1006.17
2018-07-31T10:20:33.564Z,1006.15
2018-07-31T10:21:39.105Z,1006.23
2018-07-31T10:22:39.828Z,1006.21
2018-07-31T10:23:45.673Z,1006.20
2018-07-31T10:24:58.585Z,1006.22
2018-07-31T10:26:07.400Z,1006.22
2018-07-31T10:27:03.416Z,1006.21
2018-07-31T10:28:16.635Z,1006.22
2018-07-31T10:31:31.099Z,1006.24
2018-07-31T10:32:39.818Z,1006.19
2018-07-31T10:33:50.980Z,1006.24
2018-07-31T10:34:43.411Z,1006.25
2018-07-31T10:36:07.793Z,1006.25
2018-07-31T10:37:59.311Z,1006.33
2018-07-31T10:41:17.471Z,1006.31
2018-07-31T10:44:29.163Z,1006.28
2018-07-31T10:45:50.062Z,1006.34
2018-07-31T10:46:37.678Z,1006.29
2018-07-31T10:48:01.139Z,1006.36
2018-07-31T10:48:52.754Z,1006.30
2018-07-31T10:50:07.708Z,1006.32
2018-07-31T10:51:12.040Z,1006.36
2018-07-31T10:52:14.276Z,1006.36
2018-07-31T10:53:27.499Z,1006.34
2018-07-31T10:54:30.686Z,1006.37
2018-07-31T10:55:33.455Z,1006.32
2018-07-31T10:56:41.960Z,1006.29
2018-07-31T10:57:42.901Z,1006.35
2018-07-31T10:58:48.125Z,1006.35
2018-07-31T11:00:50.401Z,1006.31
2018-07-31T11:02:11.091Z,1006.28
2018-07-31T11:05:27.402Z,1006.28
2018-07-31T11:06:34.024Z,1006.25
2018-07-31T11:08:35.314Z,1006.26
2018-07-31T11:09:36.553Z,1006.28
2018-07-31T11:11:55.207Z,1006.38
2018-07-31T11:12:56.596Z,1006.37
2018-07-31T11:14:09.460Z,1006.39
2018-07-31T11:15:10.491Z,1006.36
2018-07-31T11:18:29.058Z,1006.37
2018-07-31T11:19:37.559Z,1006.47
2018-07-31T11:20:44.326Z,1006.47
2018-07-31T11:21:45.359Z,1006.51
2018-07-31T11:23:57.969Z,1006.43
2018-07-31T11:24:57.876Z,1006.47
2018-07-31T11:26:04.133Z,1006.49
2018-07-31T11:28:27.189Z,1006.47
2018-07-31T11:30:27.514Z,1006.49
2018-07-31T11:31:37.765Z,1006.50
2018-07-31T11:32:38.793Z,1006.56
2018-07-31T11:33:42.796Z,1006.56
2018-07-31T11:36:01.453Z,1006.46
2018-07-31T11:39:08.439Z,1006.46
2018-07-31T11:41:27.091Z,1006.48
2018-07-31T11:43:38.580Z,1006.52
2018-07-31T11:44:37.874Z,1006.45
2018-07-31T11:45:42.795Z,1006.48
2018-07-31T11:46:54.173Z,1006.48
2018-07-31T11:47:46.198Z,1006.48
2018-07-31T11:49:07.414Z,1006.46
2018-07-31T11:50:04.760Z,1006.49
2018-07-31T11:51:21.753Z,1006.44
2018-07-31T11:52:26.372Z,1006.47
2018-07-31T11:53:36.107Z,1006.42
2018-07-31T11:54:29.154Z,1006.38
2018-07-31T11:55:29.985Z,1006.45
2018-07-31T11:57:43.723Z,1006.47
2018-07-31T11:58:45.982Z,1006.44
2018-07-31T11:59:58.485Z,1006.50
2018-07-31T12:00:50.301Z,1006.42
2018-07-31T12:02:08.440Z,1006.49
2018-07-31T12:03:12.541Z,1006.49
2018-07-31T12:04:19.067Z,1006.52
2018-07-31T12:06:21.172Z,1006.45
2018-07-31T12:07:33.057Z,1006.39
2018-07-31T12:08:43.412Z,1006.49
2018-07-31T12:09:41.481Z,1006.45
2018-07-31T12:10:49.982Z,1006.50
2018-07-31T12:11:57.162Z,1006.55
2018-07-31T12:14:08.033Z,1006.45
2018-07-31T12:15:24.425Z,1006.38
2018-07-31T12:16:14.703Z,1006.42
2018-07-31T12:17:31.200Z,1006.35
2018-07-31T12:18:39.913Z,1006.44
2018-07-31T12:19:33.672Z,1006.43
2018-07-31T12:20:49.282Z,1006.44
2018-07-31T12:22:46.701Z,1006.43
2018-07-31T12:24:57.062Z,1006.43
2018-07-31T12:26:19.297Z,1006.44
2018-07-31T12:27:12.953Z,1006.40
2018-07-31T12:28:14.191Z,1006.36
2018-07-31T12:29:35.601Z,1006.36
2018-07-31T12:30:33.769Z,1006.41
2018-07-31T12:32:43.260Z,1006.35
2018-07-31T12:33:54.987Z,1006.42
2018-07-31T12:34:54.589Z,1006.40
2018-07-31T12:35:59.718Z,1006.43
2018-07-31T12:37:10.473Z,1006.42
2018-07-31T12:38:00.959Z,1006.40
2018-07-31T12:40:17.053Z,1006.45
2018-07-31T12:42:21.172Z,1006.48
2018-07-31T12:43:44.539Z,1006.48
2018-07-31T12:46:02.155Z,1006.61
2018-07-31T12:46:53.768Z,1006.61
2018-07-31T12:47:58.592Z,1006.63
2018-07-31T12:52:14.085Z,1006.50
2018-07-31T12:53:40.521Z,1006.50
2018-07-31T12:54:38.682Z,1006.42
2018-07-31T12:55:37.051Z,1006.42
2018-07-31T12:57:56.219Z,1006.54
2018-07-31T12:58:53.565Z,1006.48
2018-07-31T13:00:10.367Z,1006.49
2018-07-31T13:01:07.610Z,1006.49
2018-07-31T13:02:13.489Z,1006.54
2018-07-31T13:03:08.548Z,1006.57
2018-07-31T13:04:30.580Z,1006.54
2018-07-31T13:05:29.455Z,1006.54
2018-07-31T13:06:31.531Z,1006.57
2018-07-31T13:07:36.959Z,1006.62
2018-07-31T13:08:37.989Z,1006.61
2018-07-31T13:09:46.191Z,1006.60
2018-07-31T13:10:54.592Z,1006.53
2018-07-31T13:12:09.166Z,1006.51
2018-07-31T13:13:18.786Z,1006.55
2018-07-31T13:15:18.385Z,1006.42
2018-07-31T13:17:29.364Z,1006.57
2018-07-31T13:18:33.774Z,1006.53
2018-07-31T13:19:52.318Z,1006.54
2018-07-31T13:20:45.054Z,1006.57
2018-07-31T13:22:56.495Z,1006.50
2018-07-31T13:23:55.433Z,1006.52
2018-07-31T13:25:26.262Z,1006.49
2018-07-31T13:26:17.969Z,1006.43
2018-07-31T13:28:15.842Z,1006.50
2018-07-31T13:29:31.309Z,1006.51
2018-07-31T13:30:36.778Z,1006.52
2018-07-31T13:31:55.801Z,1006.56
2018-07-31T13:32:45.058Z,1006.45
2018-07-31T13:33:57.151Z,1006.49
2018-07-31T13:34:58.285Z,1006.54
2018-07-31T13:36:02.830Z,1006.54
2018-07-31T13:38:07.841Z,1006.52
2018-07-31T13:40:21.264Z,1006.48
2018-07-31T13:42:38.687Z,1006.52
2018-07-31T13:44:44.131Z,1006.52
2018-07-31T13:47:07.500Z,1006.45
2018-07-31T13:49:11.308Z,1006.59
2018-07-31T13:50:12.955Z,1006.62
2018-07-31T13:53:52.816Z,1006.56
2018-07-31T13:54:45.555Z,1006.59
2018-07-31T13:56:49.467Z,1006.52
2018-07-31T13:58:02.888Z,1006.57
2018-07-31T13:58:45.386Z,1006.54
2018-07-31T14:01:13.669Z,1006.44
2018-07-31T14:02:11.750Z,1006.48
2018-07-31T14:03:28.127Z,1006.52
2018-07-31T14:04:40.222Z,1006.51
2018-07-31T14:05:30.504Z,1006.53
2018-07-31T14:06:35.732Z,1006.55
2018-07-31T14:07:40.661Z,1006.46
2018-07-31T14:08:52.442Z,1006.44
2018-07-31T14:10:00.436Z,1006.45
2018-07-31T14:10:45.391Z,1006.51
2018-07-31T14:12:04.454Z,1006.50
2018-07-31T14:13:22.384Z,1006.48
2018-07-31T14:15:27.107Z,1006.49
2018-07-31T14:16:27.836Z,1006.51
2018-07-31T14:17:38.601Z,1006.45
2018-07-31T14:18:41.779Z,1006.45
2018-07-31T14:19:47.624Z,1006.42
2018-07-31T14:22:04.126Z,1006.51
2018-07-31T14:23:02.190Z,1006.48
2018-07-31T14:23:59.128Z,1006.48
2018-07-31T14:25:16.756Z,1006.53
2018-07-31T14:26:12.771Z,1006.50
2018-07-31T14:27:19.943Z,1006.49
2018-07-31T14:28:30.707Z,1006.49
2018-07-31T14:29:35.012Z,1006.51
2018-07-31T14:30:41.594Z,1006.50
2018-07-31T14:31:39.536Z,1006.49
2018-07-31T14:34:06.835Z,1006.54
2018-07-31T14:35:05.275Z,1006.56
2018-07-31T14:37:05.796Z,1006.58
2018-07-31T14:38:22.812Z,1006.58
2018-07-31T14:39:23.538Z,1006.58
2018-07-31T14:41:37.168Z,1006.56
2018-07-31T14:42:45.413Z,1006.55
2018-07-31T14:44:51.738Z,1006.50
2018-07-31T14:46:05.157Z,1006.54
2018-07-31T14:46:57.692Z,1006.52
2018-07-31T14:48:04.252Z,1006.53
2018-07-31T14:50:24.447Z,1006.61
2018-07-31T14:51:29.575Z,1006.60
2018-07-31T14:52:26.001Z,1006.60
2018-07-31T14:53:36.248Z,1006.64
2018-07-31T14:54:50.287Z,1006.65
2018-07-31T14:55:53.777Z,1006.62
2018-07-31T14:56:55.323Z,1006.63
2018-07-31T14:58:09.774Z,1006.66
2018-07-31T14:59:04.861Z,1006.65
2018-07-31T15:01:18.090Z,1006.73
2018-07-31T15:02:19.326Z,1006.66
2018-07-31T15:03:29.372Z,1006.67
2018-07-31T15:04:32.454Z,1006.66
2018-07-31T15:05:40.755Z,1006.67
2018-07-31T15:06:42.038Z,1006.66
2018-07-31T15:08:53.079Z,1006.74
2018-07-31T15:09:54.103Z,1006.63
2018-07-31T15:11:05.720Z,1006.61
2018-07-31T15:12:14.807Z,1006.65
2018-07-31T15:13:08.747Z,1006.64
2018-07-31T15:14:19.947Z,1006.71
2018-07-31T15:16:36.449Z,1006.68
2018-07-31T15:17:40.966Z,1006.68
2018-07-31T15:18:45.999Z,1006.66
2018-07-31T15:20:48.777Z,1006.73
2018-07-31T15:22:00.159Z,1006.72
2018-07-31T15:23:13.987Z,1006.72
2018-07-31T15:24:10.514Z,1006.72
2018-07-31T15:25:12.678Z,1006.73
2018-07-31T15:26:22.823Z,1006.72
2018-07-31T15:27:25.086Z,1006.72
2018-07-31T15:28:36.356Z,1006.72
2018-07-31T15:29:38.234Z,1006.68
2018-07-31T15:30:39.345Z,1006.69
2018-07-31T15:31:52.877Z,1006.70
2018-07-31T15:32:58.003Z,1006.74
2018-07-31T15:33:53.915Z,1006.71
2018-07-31T15:35:04.372Z,1006.72
2018-07-31T15:36:11.039Z,1006.72
2018-07-31T15:37:28.350Z,1006.69
2018-07-31T15:38:24.671Z,1006.71
2018-07-31T15:39:22.223Z,1006.78
2018-07-31T15:40:30.222Z,1006.83
2018-07-31T15:41:40.478Z,1006.80
2018-07-31T15:43:45.098Z,1006.89
2018-07-31T15:44:55.352Z,1006.83
2018-07-31T15:46:01.912Z,1006.89
2018-07-31T15:47:06.834Z,1006.86
2018-07-31T15:48:11.309Z,1006.87
2018-07-31T15:49:20.477Z,1006.89
2018-07-31T15:50:22.673Z,1006.84
2018-07-31T15:51:29.096Z,1006.85
2018-07-31T15:53:40.786Z,1006.87
2018-07-31T15:54:46.128Z,1006.77
2018-07-31T15:55:53.296Z,1006.81
2018-07-31T15:57:08.668Z,1006.79
2018-07-31T15:57:59.355Z,1006.75
2018-07-31T15:59:03.254Z,1006.78
2018-07-31T16:01:21.608Z,1006.79
2018-07-31T16:02:24.174Z,1006.79
2018-07-31T16:03:32.482Z,1006.79
2018-07-31T16:04:36.275Z,1006.79
2018-07-31T16:05:42.126Z,1006.84
2018-07-31T16:06:52.781Z,1006.89
2018-07-31T16:09:03.043Z,1006.80
2018-07-31T16:10:14.109Z,1006.84
2018-07-31T16:11:06.853Z,1006.80